createdAt,value
2023-02-27T00:00:31.936Z,63.65
2023-02-27T00:03:34.594Z,63.89
2023-02-27T00:06:37.140Z,64.13
2023-02-27T00:09:41.990Z,64.46
2023-02-27T00:12:44.600Z,63.64
2023-02-27T00:15:49.483Z,64.53
2023-02-27T00:18:57.156Z,64.56
2023-02-27T00:21:59.684Z,65.08
2023-02-27T00:25:04.454Z,64.80
2023-02-27T00:28:09.563Z,65.36
2023-02-27T00:31:12.252Z,64.98
2023-02-27T00:34:15.863Z,65.28
2023-02-27T00:37:18.391Z,65.48
2023-02-27T00:40:24.088Z,65.31
2023-02-27T00:43:27.009Z,65.31
2023-02-27T00:46:30.174Z,65.33
2023-02-27T00:49:34.979Z,65.30
2023-02-27T00:52:40.593Z,65.42
2023-02-27T00:55:43.830Z,65.31
2023-02-27T00:58:49.296Z,65.89
2023-02-27T01:01:51.789Z,65.99
2023-02-27T01:04:57.198Z,66.28
2023-02-27T01:08:00.047Z,65.98
2023-02-27T01:11:02.701Z,66.01
2023-02-27T01:14:07.666Z,66.04
2023-02-27T01:17:12.936Z,65.57
2023-02-27T01:20:18.762Z,66.17
2023-02-27T01:23:24.464Z,66.17
2023-02-27T01:26:27.094Z,65.70
2023-02-27T01:29:29.630Z,65.55
2023-02-27T01:32:32.419Z,65.61
2023-02-27T01:35:35.393Z,65.34
2023-02-27T01:38:40.568Z,65.70
2023-02-27T01:41:43.183Z,65.68
2023-02-27T01:45:18.151Z,66.11
2023-02-27T01:48:34.165Z,65.50
2023-02-27T01:51:40.378Z,65.84
2023-02-27T01:54:43.650Z,66.48
2023-02-27T01:57:48.489Z,65.38
2023-02-27T02:00:51.531Z,65.73
2023-02-27T02:04:07.310Z,65.89
2023-02-27T02:07:24.220Z,66.02
2023-02-27T02:10:27.659Z,66.29
2023-02-27T02:13:31.916Z,66.37
2023-02-27T02:17:11.966Z,67.65
2023-02-27T02:20:33.090Z,67.07
2023-02-27T02:24:13.104Z,66.93
2023-02-27T02:27:54.718Z,67.14
2023-02-27T02:31:05.789Z,67.47
2023-02-27T02:34:35.563Z,67.05
2023-02-27T02:38:06.928Z,67.25
2023-02-27T02:41:37.319Z,67.68
2023-02-27T02:44:51.825Z,67.73
2023-02-27T02:48:07.015Z,68.02
2023-02-27T02:51:10.502Z,67.58
2023-02-27T02:54:18.132Z,68.02
2023-02-27T02:57:31.906Z,67.67
2023-02-27T03:00:52.895Z,67.36
2023-02-27T03:03:59.194Z,67.67
2023-02-27T03:07:12.737Z,68.16
2023-02-27T03:10:23.139Z,67.71
2023-02-27T03:13:31.233Z,67.70
2023-02-27T03:16:44.823Z,68.39
2023-02-27T03:19:55.318Z,68.15
2023-02-27T03:23:05.664Z,67.84
2023-02-27T03:26:09.739Z,67.98
2023-02-27T03:29:42.725Z,67.68
2023-02-27T03:32:59.106Z,67.95
2023-02-27T03:36:37.169Z,68.11
2023-02-27T03:39:53.050Z,68.44
2023-02-27T03:43:07.619Z,68.39
2023-02-27T03:46:23.867Z,67.90
2023-02-27T03:49:27.386Z,67.53
2023-02-27T03:52:30.298Z,68.43
2023-02-27T03:55:35.923Z,67.88
2023-02-27T03:58:41.413Z,68.12
2023-02-27T04:01:45.014Z,68.24
2023-02-27T04:04:48.001Z,68.51
2023-02-27T04:08:13.707Z,68.27
2023-02-27T04:11:28.663Z,68.48
2023-02-27T04:14:48.528Z,68.15
2023-02-27T04:18:12.386Z,68.40
2023-02-27T04:21:21.322Z,68.66
2023-02-27T04:24:34.657Z,68.96
2023-02-27T04:28:05.248Z,69.05
2023-02-27T04:31:16.597Z,69.48
2023-02-27T04:34:41.613Z,69.23
2023-02-27T04:38:12.073Z,68.88
2023-02-27T04:41:34.947Z,68.80
2023-02-27T04:44:38.642Z,68.67
2023-02-27T04:47:57.998Z,69.96
2023-02-27T04:51:15.581Z,68.67
2023-02-27T04:54:23.405Z,69.17
2023-02-27T04:57:42.240Z,68.66
2023-02-27T05:00:51.110Z,68.96
2023-02-27T05:03:55.267Z,68.50
2023-02-27T05:07:01.586Z,68.76
2023-02-27T05:10:14.356Z,69.04
2023-02-27T05:13:27.174Z,69.64
2023-02-27T05:16:37.651Z,69.71
2023-02-27T05:19:49.117Z,69.05
2023-02-27T05:23:16.386Z,68.75
2023-02-27T05:26:59.408Z,68.44
2023-02-27T05:30:38.243Z,69.03
2023-02-27T05:34:05.836Z,68.98
2023-02-27T05:37:15.213Z,68.77
2023-02-27T05:40:31.251Z,68.97
2023-02-27T05:43:41.552Z,69.43
2023-02-27T05:46:52.753Z,69.16
2023-02-27T05:50:09.283Z,68.59
2023-02-27T05:53:18.211Z,68.90
2023-02-27T05:56:23.753Z,68.59
2023-02-27T05:59:49.589Z,68.52
2023-02-27T06:02:53.330Z,67.54
2023-02-27T06:05:58.282Z,66.61
2023-02-27T06:09:00.780Z,66.78
2023-02-27T06:12:03.391Z,68.27
2023-02-27T06:15:06.504Z,67.30
2023-02-27T06:18:12.671Z,66.95
2023-02-27T06:21:15.275Z,69.96
2023-02-27T06:24:26.975Z,69.44
2023-02-27T06:27:29.759Z,70.16
2023-02-27T06:30:32.606Z,68.34
2023-02-27T06:33:38.617Z,66.88
2023-02-27T06:36:43.493Z,67.13
2023-02-27T06:39:46.055Z,67.37
2023-02-27T06:42:48.689Z,66.14
2023-02-27T06:45:56.128Z,66.34
2023-02-27T06:48:58.729Z,66.10
2023-02-27T06:52:03.877Z,66.08
2023-02-27T06:55:08.174Z,66.01
2023-02-27T06:58:11.067Z,65.90
2023-02-27T07:01:14.672Z,65.22
2023-02-27T07:04:17.845Z,64.78
2023-02-27T07:07:34.046Z,64.79
2023-02-27T07:10:40.109Z,64.96
2023-02-27T07:13:43.935Z,64.68
2023-02-27T07:16:51.022Z,64.66
2023-02-27T07:19:56.298Z,63.58
2023-02-27T07:22:58.927Z,63.97
2023-02-27T07:26:01.526Z,64.22
2023-02-27T07:29:05.277Z,64.36
2023-02-27T07:32:08.111Z,63.40
2023-02-27T07:35:11.974Z,64.51
2023-02-27T07:38:14.668Z,63.44
2023-02-27T07:41:29.575Z,62.46
2023-02-27T07:44:35.918Z,62.99
2023-02-27T07:47:38.495Z,62.66
2023-02-27T07:50:49.510Z,61.91
2023-02-27T07:53:52.075Z,61.06
2023-02-27T07:56:57.620Z,60.68
2023-02-27T08:00:08.061Z,59.97
2023-02-27T08:03:14.435Z,59.96
2023-02-27T08:06:19.399Z,58.94
2023-02-27T08:09:24.839Z,58.68
2023-02-27T08:12:27.716Z,57.72
2023-02-27T08:15:36.845Z,57.65
2023-02-27T08:18:39.562Z,56.87
2023-02-27T08:21:45.080Z,56.24
2023-02-27T08:24:47.716Z,56.68
2023-02-27T08:27:50.344Z,56.96
2023-02-27T08:30:52.849Z,55.57
2023-02-27T08:34:09.120Z,55.69
2023-02-27T08:37:12.568Z,55.75
2023-02-27T08:40:15.622Z,56.42
2023-02-27T08:43:21.065Z,54.67
2023-02-27T08:46:29.504Z,53.74
2023-02-27T08:49:38.102Z,53.01
2023-02-27T08:52:41.092Z,53.66
2023-02-27T08:55:43.686Z,52.22
2023-02-27T08:58:46.269Z,52.47
2023-02-27T09:01:49.017Z,52.27
2023-02-27T09:04:52.367Z,53.12
2023-02-27T09:07:54.941Z,51.42
2023-02-27T09:10:58.606Z,51.08
2023-02-27T09:14:01.483Z,51.20
2023-02-27T09:17:04.023Z,51.64
2023-02-27T09:20:09.429Z,50.83
2023-02-27T09:23:17.107Z,50.59
2023-02-27T09:26:19.744Z,50.68
2023-02-27T09:29:25.905Z,49.56
2023-02-27T09:32:29.857Z,47.06
2023-02-27T09:35:32.647Z,50.29
2023-02-27T09:38:39.248Z,46.74
2023-02-27T09:42:01.610Z,45.63
2023-02-27T09:45:09.956Z,45.25
2023-02-27T09:48:35.105Z,45.88
2023-02-27T09:51:40.929Z,47.86
2023-02-27T09:54:44.656Z,48.72
2023-02-27T09:58:02.237Z,48.10
2023-02-27T10:01:14.469Z,46.79
2023-02-27T10:04:38.639Z,47.19
2023-02-27T10:07:58.862Z,48.24
2023-02-27T10:11:01.473Z,48.22
2023-02-27T10:14:36.404Z,48.56
2023-02-27T10:18:23.603Z,48.57
2023-02-27T10:21:47.277Z,47.12
2023-02-27T10:25:28.727Z,46.78
2023-02-27T10:28:33.343Z,46.12
2023-02-27T10:31:36.312Z,45.87
2023-02-27T10:34:41.533Z,46.65
2023-02-27T10:38:11.132Z,45.74
2023-02-27T10:41:15.922Z,45.28
2023-02-27T10:44:24.661Z,45.85
2023-02-27T10:47:27.650Z,44.36
2023-02-27T10:50:37.040Z,45.15
2023-02-27T10:53:39.675Z,46.46
2023-02-27T10:56:44.746Z,45.01
2023-02-27T11:00:00.413Z,46.00
2023-02-27T11:03:03.184Z,46.61
2023-02-27T11:06:24.914Z,44.65
2023-02-27T11:09:32.599Z,46.03
2023-02-27T11:12:35.364Z,45.07
2023-02-27T11:15:38.839Z,45.99
2023-02-27T11:18:46.290Z,46.97
2023-02-27T11:22:20.369Z,45.68
2023-02-27T11:25:24.804Z,47.24
2023-02-27T11:28:32.304Z,45.95
2023-02-27T11:31:47.062Z,45.80
2023-02-27T11:34:52.370Z,47.09
2023-02-27T11:38:31.116Z,45.43
2023-02-27T11:41:37.955Z,46.92
2023-02-27T11:44:50.717Z,47.01
2023-02-27T11:47:59.242Z,47.77
2023-02-27T11:51:28.174Z,46.94
2023-02-27T11:54:38.950Z,47.95
2023-02-27T11:57:44.375Z,47.45
2023-02-27T12:01:01.509Z,46.70
2023-02-27T12:04:16.925Z,45.93
2023-02-27T12:07:42.098Z,45.44
2023-02-27T12:11:07.745Z,43.84
2023-02-27T12:14:20.409Z,44.61
2023-02-27T12:17:32.253Z,44.66
2023-02-27T12:20:48.683Z,43.53
2023-02-27T12:23:56.039Z,43.75
2023-02-27T12:27:11.845Z,43.29
2023-02-27T12:30:27.171Z,42.58
2023-02-27T12:33:40.769Z,41.91
2023-02-27T12:36:46.261Z,42.28
2023-02-27T12:39:51.911Z,41.21
2023-02-27T12:43:20.911Z,43.26
2023-02-27T12:46:29.580Z,42.19
2023-02-27T12:49:50.261Z,41.69
2023-02-27T12:53:23.425Z,43.70
2023-02-27T12:56:41.525Z,42.99
2023-02-27T13:00:07.550Z,39.98
2023-02-27T13:03:16.529Z,41.49
2023-02-27T13:06:45.848Z,41.64
2023-02-27T13:10:02.494Z,42.63
2023-02-27T13:13:14.630Z,42.08
2023-02-27T13:16:26.462Z,42.11
2023-02-27T13:19:42.886Z,43.35
2023-02-27T13:23:23.016Z,42.70
2023-02-27T13:26:34.258Z,43.41
2023-02-27T13:29:40.931Z,42.33
2023-02-27T13:33:15.407Z,42.43
2023-02-27T13:36:33.976Z,42.65
2023-02-27T13:39:52.181Z,41.98
2023-02-27T13:42:59.513Z,42.74
2023-02-27T13:46:23.272Z,42.96
2023-02-27T13:49:30.058Z,45.45
2023-02-27T13:52:37.924Z,46.16
2023-02-27T13:55:40.563Z,46.05
2023-02-27T13:58:43.618Z,45.71
2023-02-27T14:02:28.365Z,47.46
2023-02-27T14:05:42.431Z,47.18
2023-02-27T14:08:50.428Z,48.10
2023-02-27T14:12:00.216Z,47.77
2023-02-27T14:15:18.180Z,47.12
2023-02-27T14:18:57.748Z,48.20
2023-02-27T14:22:04.296Z,48.23
2023-02-27T14:25:22.152Z,48.32
2023-02-27T14:28:36.262Z,49.65
2023-02-27T14:31:39.238Z,49.06
2023-02-27T14:34:41.949Z,48.91
2023-02-27T14:37:47.345Z,49.75
2023-02-27T14:40:55.402Z,48.98
2023-02-27T14:43:59.060Z,51.05
2023-02-27T14:47:03.202Z,49.03
2023-02-27T14:50:20.598Z,50.44
2023-02-27T14:53:25.965Z,50.66
2023-02-27T14:56:32.376Z,51.62
2023-02-27T14:59:45.373Z,52.89
2023-02-27T15:02:52.439Z,53.12
2023-02-27T15:05:59.445Z,52.75
2023-02-27T15:09:02.288Z,53.22
2023-02-27T15:12:05.407Z,53.45
2023-02-27T15:15:12.747Z,53.30
2023-02-27T15:18:15.590Z,52.63
2023-02-27T15:21:21.540Z,51.13
2023-02-27T15:24:40.622Z,51.16
2023-02-27T15:27:50.396Z,51.19
2023-02-27T15:30:55.232Z,53.55
2023-02-27T15:34:02.510Z,52.34
2023-02-27T15:37:05.895Z,53.76
2023-02-27T15:40:16.597Z,53.55
2023-02-27T15:43:20.761Z,54.22
2023-02-27T15:46:23.672Z,53.40
2023-02-27T15:49:26.590Z,55.43
2023-02-27T15:52:33.467Z,53.37
2023-02-27T15:55:39.089Z,54.83
2023-02-27T15:58:54.610Z,53.30
2023-02-27T16:02:00.966Z,54.01
2023-02-27T16:05:03.755Z,53.56
2023-02-27T16:08:07.203Z,55.22
2023-02-27T16:11:28.702Z,55.62
2023-02-27T16:14:43.036Z,55.54
2023-02-27T16:17:55.633Z,55.08
2023-02-27T16:21:15.388Z,54.85
2023-02-27T16:24:21.828Z,54.88
2023-02-27T16:27:29.300Z,56.30
2023-02-27T16:30:34.683Z,55.62
2023-02-27T16:33:39.547Z,57.69
2023-02-27T16:36:51.781Z,56.70
2023-02-27T16:39:54.729Z,56.22
2023-02-27T16:43:00.475Z,57.28
2023-02-27T16:46:03.363Z,57.65
2023-02-27T16:49:19.203Z,57.43
2023-02-27T16:52:22.826Z,58.98
2023-02-27T16:55:26.188Z,58.86
2023-02-27T16:58:28.840Z,59.08
2023-02-27T17:01:33.941Z,58.82
2023-02-27T17:04:37.280Z,58.86
2023-02-27T17:07:40.035Z,59.34
2023-02-27T17:10:42.694Z,59.35
2023-02-27T17:13:45.427Z,59.16
2023-02-27T17:16:48.503Z,59.30
2023-02-27T17:19:51.174Z,59.73
2023-02-27T17:22:57.594Z,59.66
2023-02-27T17:26:00.267Z,59.14
2023-02-27T17:29:03.862Z,60.18
2023-02-27T17:32:06.773Z,60.38
2023-02-27T17:35:10.071Z,59.80
2023-02-27T17:38:12.681Z,60.53
2023-02-27T17:41:17.126Z,60.76
2023-02-27T17:44:19.954Z,60.45
2023-02-27T17:47:22.671Z,60.72
2023-02-27T17:50:25.528Z,60.61
2023-02-27T17:53:30.179Z,61.26
2023-02-27T17:56:35.651Z,60.75
2023-02-27T17:59:41.129Z,61.74
2023-02-27T18:02:45.353Z,61.71
2023-02-27T18:05:52.795Z,62.08
2023-02-27T18:08:58.149Z,63.16
2023-02-27T18:12:01.012Z,64.25
2023-02-27T18:15:04.758Z,64.78
2023-02-27T18:18:07.893Z,65.17
2023-02-27T18:21:16.735Z,65.29
2023-02-27T18:24:19.651Z,66.09
2023-02-27T18:27:22.716Z,65.89
2023-02-27T18:30:26.120Z,66.70
2023-02-27T18:33:31.795Z,67.26
2023-02-27T18:36:35.364Z,67.81
2023-02-27T18:39:38.236Z,68.98
2023-02-27T18:42:42.188Z,69.91
2023-02-27T18:45:46.911Z,70.68
2023-02-27T18:48:49.945Z,70.73
2023-02-27T18:51:52.784Z,71.87
2023-02-27T18:54:58.380Z,71.70
2023-02-27T18:58:01.180Z,72.74
2023-02-27T19:01:04.817Z,72.43
2023-02-27T19:04:08.490Z,72.71
2023-02-27T19:07:11.406Z,70.76
2023-02-27T19:10:15.235Z,71.17
2023-02-27T19:13:18.015Z,70.89
2023-02-27T19:16:20.961Z,71.21
2023-02-27T19:19:28.409Z,72.01
2023-02-27T19:22:31.012Z,72.15
2023-02-27T19:25:33.843Z,72.00
2023-02-27T19:28:37.093Z,72.07
2023-02-27T19:31:40.268Z,71.67
2023-02-27T19:34:43.425Z,72.94
2023-02-27T19:37:48.138Z,72.64
2023-02-27T19:40:53.919Z,73.67
2023-02-27T19:43:56.888Z,73.94
2023-02-27T19:47:00.321Z,73.17
2023-02-27T19:50:04.721Z,73.97
2023-02-27T19:53:09.574Z,73.62
2023-02-27T19:56:17.502Z,72.32
2023-02-27T19:59:22.152Z,72.16
2023-02-27T20:02:25.008Z,71.89
2023-02-27T20:05:31.020Z,73.32
2023-02-27T20:08:34.303Z,72.20
2023-02-27T20:11:37.246Z,71.74
2023-02-27T20:14:40.742Z,73.68
2023-02-27T20:17:44.027Z,70.88
2023-02-27T20:20:46.789Z,70.64
2023-02-27T20:23:51.767Z,70.75
2023-02-27T20:26:55.120Z,73.65
2023-02-27T20:29:58.042Z,71.66
2023-02-27T20:33:01.941Z,73.00
2023-02-27T20:36:09.694Z,73.81
2023-02-27T20:39:12.520Z,74.42
2023-02-27T20:42:18.120Z,74.45
2023-02-27T20:45:20.941Z,74.06
2023-02-27T20:48:23.728Z,73.75
2023-02-27T20:51:28.991Z,70.73
2023-02-27T20:54:32.352Z,71.13
2023-02-27T20:57:35.111Z,71.58
2023-02-27T21:00:40.599Z,71.86
2023-02-27T21:03:45.078Z,71.93
2023-02-27T21:06:48.351Z,70.92
2023-02-27T21:09:51.165Z,70.55
2023-02-27T21:12:54.969Z,69.82
2023-02-27T21:16:00.526Z,70.39
2023-02-27T21:19:03.165Z,69.98
2023-02-27T21:22:06.125Z,69.70
2023-02-27T21:25:12.860Z,69.61
2023-02-27T21:28:15.479Z,70.59
2023-02-27T21:31:19.563Z,70.16
2023-02-27T21:34:30.361Z,70.49
2023-02-27T21:37:35.120Z,69.21
2023-02-27T21:40:40.044Z,69.51
2023-02-27T21:43:42.610Z,69.11
2023-02-27T21:46:45.928Z,69.05
2023-02-27T21:49:48.453Z,70.50
2023-02-27T21:52:51.087Z,70.17
2023-02-27T21:56:01.840Z,70.21
2023-02-27T21:59:04.999Z,68.83
2023-02-27T22:02:10.043Z,68.54
2023-02-27T22:05:12.634Z,67.87
2023-02-27T22:08:15.239Z,68.80
2023-02-27T22:11:20.000Z,69.23
2023-02-27T22:14:22.605Z,69.81
2023-02-27T22:17:27.909Z,69.42
2023-02-27T22:20:30.450Z,69.52
2023-02-27T22:23:32.974Z,70.16
2023-02-27T22:26:35.856Z,70.40
2023-02-27T22:29:38.671Z,70.04
2023-02-27T22:32:41.317Z,69.99
2023-02-27T22:35:46.909Z,69.63
2023-02-27T22:38:49.992Z,68.73
2023-02-27T22:41:52.562Z,69.04
2023-02-27T22:44:57.585Z,69.20
2023-02-27T22:48:02.799Z,68.86
2023-02-27T22:51:12.764Z,69.51
2023-02-27T22:54:17.140Z,68.80
2023-02-27T22:57:25.543Z,68.71
2023-02-27T23:00:33.066Z,68.68
2023-02-27T23:03:39.312Z,68.81
2023-02-27T23:06:43.048Z,68.18
2023-02-27T23:09:45.676Z,68.99
2023-02-27T23:12:50.815Z,69.36
2023-02-27T23:15:53.444Z,68.72
2023-02-27T23:19:00.803Z,68.07
2023-02-27T23:22:03.356Z,67.94
2023-02-27T23:25:07.346Z,67.46
2023-02-27T23:28:10.279Z,67.84
2023-02-27T23:31:13.227Z,68.19
2023-02-27T23:34:16.607Z,67.30
2023-02-27T23:37:19.195Z,67.50
2023-02-27T23:40:22.930Z,67.08
2023-02-27T23:43:25.472Z,68.27
2023-02-27T23:46:30.751Z,68.35
2023-02-27T23:49:33.434Z,67.39
2023-02-27T23:52:36.072Z,67.18
2023-02-27T23:55:39.772Z,68.22
2023-02-27T23:58:42.628Z,68.98
